createdAt,value
2019-06-07T00:00:54.697Z,974.15
2019-06-07T00:01:54.729Z,974.09
2019-06-07T00:02:54.695Z,974.14
2019-06-07T00:03:54.693Z,974.15
2019-06-07T00:04:54.690Z,974.13
2019-06-07T00:05:54.694Z,974.14
2019-06-07T00:06:54.717Z,974.17
2019-06-07T00:07:54.685Z,974.13
2019-06-07T00:08:54.685Z,974.13
2019-06-07T00:09:54.686Z,974.16
2019-06-07T00:10:54.688Z,974.19
2019-06-07T00:11:54.711Z,974.18
2019-06-07T00:12:54.690Z,974.23
2019-06-07T00:13:54.676Z,974.20
2019-06-07T00:14:54.831Z,974.22
2019-06-07T00:15:54.679Z,974.27
2019-06-07T00:16:54.705Z,974.28
2019-06-07T00:17:54.687Z,974.31
2019-06-07T00:18:54.672Z,974.32
2019-06-07T00:19:54.670Z,974.33
2019-06-07T00:20:54.710Z,974.37
2019-06-07T00:22:15.922Z,974.37
2019-06-07T00:22:54.672Z,974.39
2019-06-07T00:23:54.695Z,974.39
2019-06-07T00:24:54.675Z,974.42
2019-06-07T00:25:54.668Z,974.45
2019-06-07T00:26:58.807Z,974.42
2019-06-07T00:27:54.697Z,974.46
2019-06-07T00:28:54.668Z,974.44
2019-06-07T00:29:54.662Z,974.44
2019-06-07T00:30:54.684Z,974.44
2019-06-07T00:31:54.658Z,974.48
2019-06-07T00:32:54.690Z,974.48
2019-06-07T00:33:54.660Z,974.51
2019-06-07T00:34:54.787Z,974.52
2019-06-07T00:35:54.659Z,974.52
2019-06-07T00:36:54.677Z,974.52
2019-06-07T00:37:54.680Z,974.50
2019-06-07T00:38:54.655Z,974.48
2019-06-07T00:40:13.356Z,974.49
2019-06-07T00:40:54.653Z,974.49
2019-06-07T00:41:54.648Z,974.52
2019-06-07T00:42:54.672Z,974.49
2019-06-07T00:43:54.653Z,974.48
2019-06-07T00:44:54.645Z,974.47
2019-06-07T00:45:54.697Z,974.47
2019-06-07T00:46:54.646Z,974.47
2019-06-07T00:47:54.669Z,974.43
2019-06-07T00:48:54.638Z,974.41
2019-06-07T00:49:54.667Z,974.41
2019-06-07T00:50:54.642Z,974.44
2019-06-07T00:51:54.636Z,974.44
2019-06-07T00:53:54.636Z,974.46
2019-06-07T00:54:54.642Z,974.45
2019-06-07T00:55:54.634Z,974.45
2019-06-07T00:56:54.642Z,974.49
2019-06-07T00:57:54.725Z,974.49
2019-06-07T00:59:10.832Z,974.51
2019-06-07T00:59:54.631Z,974.53
2019-06-07T01:00:54.634Z,974.53
2019-06-07T01:01:54.627Z,974.52
2019-06-07T01:02:54.650Z,974.51
2019-06-07T01:03:54.627Z,974.46
2019-06-07T01:04:54.633Z,974.42
2019-06-07T01:05:54.621Z,974.46
2019-06-07T01:06:54.621Z,974.49
2019-06-07T01:07:54.651Z,974.47
2019-06-07T01:08:54.617Z,974.45
2019-06-07T01:09:54.618Z,974.42
2019-06-07T01:10:54.620Z,974.39
2019-06-07T01:11:54.613Z,974.41
2019-06-07T01:12:58.229Z,974.41
2019-06-07T01:13:54.611Z,974.40
2019-06-07T01:14:56.628Z,974.36
2019-06-07T01:15:55.283Z,974.40
2019-06-07T01:17:01.268Z,974.38
2019-06-07T01:18:54.604Z,974.43
2019-06-07T01:19:54.608Z,974.46
2019-06-07T01:20:54.604Z,974.41
2019-06-07T01:21:54.604Z,974.43
2019-06-07T01:22:54.651Z,974.43
2019-06-07T01:24:11.028Z,974.43
2019-06-07T01:24:54.601Z,974.42
2019-06-07T01:25:54.598Z,974.46
2019-06-07T01:26:55.010Z,974.51
2019-06-07T01:27:54.630Z,974.50
2019-06-07T01:28:54.595Z,974.48
2019-06-07T01:29:54.599Z,974.49
2019-06-07T01:30:54.604Z,974.49
2019-06-07T01:31:54.626Z,974.46
2019-06-07T01:32:54.597Z,974.42
2019-06-07T01:33:54.625Z,974.43
2019-06-07T01:34:54.593Z,974.37
2019-06-07T01:35:54.589Z,974.35
2019-06-07T01:36:54.588Z,974.31
2019-06-07T01:37:54.587Z,974.29
2019-06-07T01:38:54.623Z,974.26
2019-06-07T01:39:54.617Z,974.25
2019-06-07T01:40:54.588Z,974.23
2019-06-07T01:41:54.580Z,974.23
2019-06-07T01:42:54.582Z,974.25
2019-06-07T01:43:54.609Z,974.27
2019-06-07T01:44:54.578Z,974.25
2019-06-07T01:45:54.572Z,974.23
2019-06-07T01:46:54.576Z,974.23
2019-06-07T01:47:54.579Z,974.23
2019-06-07T01:48:54.601Z,974.18
2019-06-07T01:49:54.577Z,974.19
2019-06-07T01:50:54.576Z,974.17
2019-06-07T01:51:54.570Z,974.20
2019-06-07T01:52:54.579Z,974.18
2019-06-07T01:54:41.298Z,974.16
2019-06-07T01:54:58.337Z,974.13
2019-06-07T01:55:54.563Z,974.15
2019-06-07T01:56:54.568Z,974.15
2019-06-07T01:57:54.563Z,974.16
2019-06-07T01:58:54.587Z,974.19
2019-06-07T01:59:54.560Z,974.20
2019-06-07T02:00:54.566Z,974.21
2019-06-07T02:01:54.556Z,974.20
2019-06-07T02:02:54.571Z,974.23
2019-06-07T02:03:54.586Z,974.28
2019-06-07T02:04:54.552Z,974.27
2019-06-07T02:05:54.553Z,974.28
2019-06-07T02:06:54.555Z,974.27
2019-06-07T02:07:54.550Z,974.32
2019-06-07T02:08:54.579Z,974.29
2019-06-07T02:09:54.651Z,974.28
2019-06-07T02:10:54.859Z,974.31
2019-06-07T02:11:54.549Z,974.30
2019-06-07T02:12:55.560Z,974.27
2019-06-07T02:13:54.570Z,974.30
2019-06-07T02:14:54.643Z,974.27
2019-06-07T02:15:56.298Z,974.24
2019-06-07T02:16:54.534Z,974.23
2019-06-07T02:17:54.539Z,974.22
2019-06-07T02:19:01.779Z,974.23
2019-06-07T02:19:54.538Z,974.23
2019-06-07T02:20:54.535Z,974.23
2019-06-07T02:21:54.531Z,974.22
2019-06-07T02:22:54.531Z,974.22
2019-06-07T02:23:54.700Z,974.23
2019-06-07T02:25:34.472Z,974.24
2019-06-07T02:25:54.539Z,974.27
2019-06-07T02:26:54.529Z,974.29
2019-06-07T02:28:10.961Z,974.32
2019-06-07T02:28:54.554Z,974.31
2019-06-07T02:29:54.533Z,974.31
2019-06-07T02:30:59.841Z,974.35
2019-06-07T02:31:54.526Z,974.36
2019-06-07T02:32:54.559Z,974.37
2019-06-07T02:33:54.555Z,974.37
2019-06-07T02:34:54.519Z,974.36
2019-06-07T02:35:54.519Z,974.35
2019-06-07T02:36:54.532Z,974.35
2019-06-07T02:37:54.514Z,974.30
2019-06-07T02:38:54.552Z,974.33
2019-06-07T02:39:54.619Z,974.31
2019-06-07T02:40:54.509Z,974.30
2019-06-07T02:41:54.518Z,974.29
2019-06-07T02:42:54.513Z,974.28
2019-06-07T02:43:54.507Z,974.25
2019-06-07T02:44:54.536Z,974.25
2019-06-07T02:45:54.506Z,974.24
2019-06-07T02:46:54.502Z,974.23
2019-06-07T02:47:54.508Z,974.22
2019-06-07T02:48:54.503Z,974.19
2019-06-07T02:49:54.535Z,974.20
2019-06-07T02:50:54.502Z,974.17
2019-06-07T02:51:54.554Z,974.16
2019-06-07T02:52:54.547Z,974.15
2019-06-07T02:53:54.509Z,974.16
2019-06-07T02:54:54.518Z,974.16
2019-06-07T02:56:34.827Z,974.18
2019-06-07T02:56:58.667Z,974.11
2019-06-07T02:57:54.496Z,974.13
2019-06-07T02:58:54.489Z,974.16
2019-06-07T03:00:07.558Z,974.18
2019-06-07T03:01:06.528Z,974.20
2019-06-07T03:01:54.491Z,974.22
2019-06-07T03:02:54.495Z,974.21
2019-06-07T03:03:54.470Z,974.24
2019-06-07T03:04:54.507Z,974.20
2019-06-07T03:05:54.519Z,974.17
2019-06-07T03:06:54.483Z,974.14
2019-06-07T03:07:54.475Z,974.19
2019-06-07T03:08:54.477Z,974.16
2019-06-07T03:09:54.483Z,974.16
2019-06-07T03:10:54.474Z,974.19
2019-06-07T03:11:54.474Z,974.18
2019-06-07T03:12:55.311Z,974.17
2019-06-07T03:13:54.470Z,974.21
2019-06-07T03:14:54.495Z,974.24
2019-06-07T03:15:54.470Z,974.28
2019-06-07T03:16:54.473Z,974.25
2019-06-07T03:17:54.462Z,974.27
2019-06-07T03:18:54.466Z,974.27
2019-06-07T03:19:54.487Z,974.30
2019-06-07T03:21:05.072Z,974.32
2019-06-07T03:21:54.456Z,974.34
2019-06-07T03:22:54.457Z,974.36
2019-06-07T03:23:54.452Z,974.37
2019-06-07T03:24:54.484Z,974.42
2019-06-07T03:25:54.452Z,974.44
2019-06-07T03:27:54.449Z,974.44
2019-06-07T03:28:54.457Z,974.47
2019-06-07T03:29:54.479Z,974.45
2019-06-07T03:31:02.230Z,974.42
2019-06-07T03:31:54.447Z,974.45
2019-06-07T03:32:54.449Z,974.39
2019-06-07T03:33:54.441Z,974.46
2019-06-07T03:34:54.469Z,974.46
2019-06-07T03:35:54.438Z,974.45
2019-06-07T08:08:00.188Z,975.02
2019-06-07T08:15:59.203Z,974.96
2019-06-07T08:16:57.492Z,974.90
2019-06-07T08:17:57.768Z,974.91
2019-06-07T08:19:02.263Z,975.08
2019-06-07T08:19:57.340Z,974.87
2019-06-07T08:21:20.314Z,974.84
2019-06-07T08:21:55.716Z,974.72
2019-06-07T08:22:58.820Z,974.57
2019-06-07T08:23:59.298Z,974.50
2019-06-07T08:24:56.006Z,974.52
2019-06-07T08:25:58.506Z,974.60
2019-06-07T08:27:17.889Z,974.63
2019-06-07T08:27:57.088Z,974.70
2019-06-07T08:28:58.913Z,974.86
2019-06-07T08:30:18.489Z,974.68
2019-06-07T08:31:02.336Z,974.43
2019-06-07T08:31:56.311Z,974.48
2019-06-07T08:32:58.773Z,974.38
2019-06-07T08:33:58.009Z,974.23
2019-06-07T08:35:01.569Z,974.21
2019-06-07T08:36:10.442Z,974.32
2019-06-07T08:36:58.413Z,974.40
2019-06-07T08:38:21.596Z,974.28
2019-06-07T08:38:58.006Z,974.35
2019-06-07T08:39:56.749Z,974.36
2019-06-07T08:41:04.372Z,974.38
2019-06-07T08:42:14.086Z,974.11
2019-06-07T08:43:19.458Z,974.39
2019-06-07T08:43:56.827Z,974.21
2019-06-07T08:45:01.610Z,974.12
2019-06-07T08:46:00.888Z,974.19
2019-06-07T08:47:12.593Z,974.19
2019-06-07T08:47:58.172Z,974.11
2019-06-07T08:48:57.144Z,974.10
2019-06-07T08:49:59.307Z,974.14
2019-06-07T08:51:00.697Z,974.17
2019-06-07T08:52:04.559Z,974.26
2019-06-07T08:53:02.948Z,974.31
2019-06-07T08:54:20.623Z,974.23
2019-06-07T08:54:57.178Z,974.38
2019-06-07T08:56:04.391Z,974.56
2019-06-07T08:57:06.658Z,974.47
2019-06-07T08:58:02.261Z,974.47
2019-06-07T08:58:56.911Z,974.43
2019-06-07T08:59:56.599Z,974.36
2019-06-07T09:00:56.281Z,974.49
2019-06-07T09:01:59.682Z,974.51
2019-06-07T09:02:57.807Z,974.39
2019-06-07T09:04:00.169Z,974.47
2019-06-07T09:04:59.225Z,974.39
2019-06-07T09:05:57.200Z,974.50
2019-06-07T09:07:06.698Z,974.53
2019-06-07T09:08:21.045Z,974.49
2019-06-07T09:08:56.100Z,974.39
2019-06-07T09:10:01.860Z,974.55
2019-06-07T09:10:56.490Z,974.49
2019-06-07T09:11:57.181Z,974.49
2019-06-07T09:13:00.372Z,974.52
2019-06-07T09:13:57.227Z,974.46
2019-06-07T09:15:06.836Z,974.42
2019-06-07T09:15:56.048Z,974.20
2019-06-07T09:17:00.425Z,974.35
2019-06-07T09:18:37.935Z,974.37
2019-06-07T09:18:57.009Z,974.30
2019-06-07T09:19:56.216Z,974.21
2019-06-07T09:20:55.649Z,974.10
2019-06-07T09:21:57.450Z,974.15
2019-06-07T09:22:59.047Z,974.18
2019-06-07T09:23:57.198Z,974.22
2019-06-07T09:24:59.237Z,974.26
2019-06-07T09:26:04.854Z,974.20
2019-06-07T09:26:55.863Z,974.31
2019-06-07T09:28:00.589Z,974.31
2019-06-07T09:28:56.150Z,974.41
2019-06-07T09:30:00.743Z,974.40
2019-06-07T09:30:55.868Z,974.30
2019-06-07T09:31:55.909Z,974.32
2019-06-07T09:32:55.612Z,974.19
2019-06-07T09:33:59.790Z,974.27
2019-06-07T09:35:00.087Z,974.31
2019-06-07T09:35:56.173Z,974.21
2019-06-07T09:36:58.161Z,974.24
2019-06-07T09:38:07.352Z,974.36
2019-06-07T09:38:58.613Z,974.35
2019-06-07T09:39:59.541Z,974.32
2019-06-07T09:40:56.324Z,974.25
2019-06-07T09:41:56.477Z,974.25
2019-06-07T09:43:47.323Z,974.24
2019-06-07T09:44:04.549Z,974.26
2019-06-07T09:44:57.344Z,974.29
2019-06-07T09:45:57.921Z,974.26
2019-06-07T09:47:12.493Z,974.24
2019-06-07T09:47:57.072Z,974.13
2019-06-07T09:49:27.727Z,974.14
2019-06-07T09:49:56.694Z,974.04
2019-06-07T09:50:55.205Z,974.07
2019-06-07T09:51:55.785Z,974.04
2019-06-07T09:53:02.819Z,974.01
2019-06-07T09:53:56.162Z,973.96
2019-06-07T09:55:09.450Z,973.99
2019-06-07T09:55:56.764Z,974.01
2019-06-07T09:56:55.203Z,973.96
2019-06-07T09:57:58.240Z,973.96
2019-06-07T09:58:55.213Z,974.11
2019-06-07T09:59:55.219Z,974.13
2019-06-07T10:00:55.250Z,974.10
2019-06-07T10:01:55.234Z,974.06
2019-06-07T10:02:55.237Z,974.13
2019-06-07T10:03:55.248Z,974.14
2019-06-07T10:04:55.246Z,974.09
2019-06-07T10:05:55.284Z,974.11
2019-06-07T10:06:55.251Z,974.09
2019-06-07T10:08:09.446Z,974.01
2019-06-07T10:10:12.448Z,974.03
2019-06-07T10:10:55.302Z,974.03
2019-06-07T10:11:55.277Z,973.97
2019-06-07T10:12:55.279Z,973.99
2019-06-07T10:13:55.301Z,973.93
2019-06-07T10:14:55.302Z,974.03
2019-06-07T10:15:55.326Z,974.07
2019-06-07T10:16:55.298Z,974.04
2019-06-07T10:17:55.305Z,974.07
2019-06-07T10:18:55.311Z,974.06
2019-06-07T10:19:55.343Z,974.10
2019-06-07T10:20:55.360Z,974.09
2019-06-07T10:21:55.360Z,974.11
2019-06-07T10:22:55.390Z,974.14
2019-06-07T10:23:55.421Z,974.16
2019-06-07T10:24:55.349Z,974.14
2019-06-07T10:25:55.512Z,974.08
2019-06-07T10:26:55.389Z,974.10
2019-06-07T10:27:55.376Z,974.09
2019-06-07T10:28:55.363Z,973.95
2019-06-07T10:29:55.407Z,973.96
2019-06-07T10:30:55.375Z,973.95
2019-06-07T10:31:55.447Z,973.86
2019-06-07T10:32:55.384Z,973.97
2019-06-07T10:33:55.394Z,974.01
2019-06-07T10:34:55.395Z,973.96
2019-06-07T10:35:55.406Z,974.04
2019-06-07T10:36:55.447Z,974.02
2019-06-07T10:37:58.064Z,974.03
2019-06-07T10:38:55.421Z,974.09
2019-06-07T10:39:55.423Z,974.13
2019-06-07T10:40:55.434Z,974.08
2019-06-07T10:41:55.462Z,974.04
2019-06-07T10:42:55.448Z,974.04
2019-06-07T10:43:55.450Z,974.01
2019-06-07T10:44:55.461Z,974.03
2019-06-07T10:45:55.463Z,973.97
2019-06-07T10:46:59.041Z,974.03
2019-06-07T10:47:55.479Z,974.00
2019-06-07T10:48:55.513Z,974.06
2019-06-07T10:49:55.491Z,974.06
2019-06-07T10:50:55.513Z,974.04
2019-06-07T10:51:55.533Z,974.06
2019-06-07T10:52:55.509Z,974.11
2019-06-07T10:53:55.517Z,974.09
2019-06-07T10:54:55.523Z,974.14
2019-06-07T10:55:55.530Z,974.18
2019-06-07T10:56:55.613Z,974.13
2019-06-07T10:57:55.552Z,974.04
2019-06-07T10:58:55.555Z,974.01
2019-06-07T10:59:55.566Z,973.93
2019-06-07T11:00:55.586Z,973.95
2019-06-07T11:01:55.621Z,973.93
2019-06-07T11:02:55.592Z,973.88
2019-06-07T11:03:55.600Z,973.87
2019-06-07T11:04:55.619Z,973.84
2019-06-07T11:05:55.628Z,973.88
2019-06-07T11:06:55.667Z,973.80
2019-06-07T11:07:55.644Z,973.78
2019-06-07T11:08:55.640Z,973.73
2019-06-07T11:10:06.449Z,973.82
2019-06-07T11:10:55.661Z,973.75
2019-06-07T11:11:55.709Z,973.75
2019-06-07T11:12:55.680Z,973.73
2019-06-07T11:13:55.696Z,973.76
2019-06-07T11:14:56.423Z,973.83
2019-06-07T11:15:55.717Z,973.73
2019-06-07T11:16:55.746Z,973.66
2019-06-07T11:17:55.738Z,973.65
2019-06-07T11:18:56.414Z,973.66
2019-06-07T11:19:55.748Z,973.65
2019-06-07T11:20:55.760Z,973.63
2019-06-07T11:21:55.803Z,973.54
2019-06-07T11:22:55.779Z,973.50
2019-06-07T11:23:55.788Z,973.47
2019-06-07T11:24:55.796Z,973.59
2019-06-07T11:25:55.807Z,973.59
2019-06-07T11:26:55.840Z,973.61
2019-06-07T11:27:55.817Z,973.59
2019-06-07T11:28:55.832Z,973.61
2019-06-07T11:29:55.836Z,973.53
2019-06-07T11:30:55.849Z,973.47
2019-06-07T11:31:55.893Z,973.52
2019-06-07T11:32:55.873Z,973.52
2019-06-07T11:33:55.893Z,973.48
2019-06-07T11:34:56.517Z,973.50
2019-06-07T11:35:55.897Z,973.53
2019-06-07T11:36:55.937Z,973.50
2019-06-07T11:37:55.924Z,973.53
2019-06-07T11:38:55.927Z,973.53
2019-06-07T11:39:56.924Z,973.51
2019-06-07T11:40:55.943Z,973.52
2019-06-07T11:41:55.988Z,973.50
2019-06-07T11:42:55.967Z,973.53
2019-06-07T11:43:55.973Z,973.66
2019-06-07T11:44:57.269Z,973.53
2019-06-07T11:45:55.991Z,973.60
2019-06-07T11:46:56.046Z,973.71
2019-06-07T11:47:56.011Z,973.47
2019-06-07T11:48:56.026Z,973.57
2019-06-07T11:49:56.035Z,973.49
2019-06-07T11:50:56.046Z,973.43
2019-06-07T11:51:56.100Z,973.42
2019-06-07T11:52:56.068Z,973.42
2019-06-07T11:53:56.078Z,973.60
2019-06-07T11:54:56.081Z,973.51
2019-06-07T11:55:56.091Z,973.57
2019-06-07T11:56:56.147Z,973.68
2019-06-07T11:57:56.143Z,973.70
2019-06-07T11:58:56.141Z,973.55
2019-06-07T11:59:56.183Z,973.45
2019-06-07T12:00:56.149Z,973.58
2019-06-07T12:01:56.172Z,973.54
2019-06-07T12:02:56.201Z,973.60
2019-06-07T12:03:58.576Z,973.68
2019-06-07T12:04:56.196Z,973.60
2019-06-07T12:05:56.232Z,973.45
2019-06-07T12:06:56.223Z,973.49
2019-06-07T12:07:57.151Z,973.36
2019-06-07T12:08:56.241Z,973.41
2019-06-07T12:09:56.969Z,973.36
2019-06-07T12:10:56.267Z,973.40
2019-06-07T12:11:56.288Z,973.40
2019-06-07T12:12:56.334Z,973.46
2019-06-07T12:13:56.338Z,973.49
2019-06-07T12:14:56.328Z,973.32
2019-06-07T12:15:56.345Z,973.34
2019-06-07T12:16:56.348Z,973.36
2019-06-07T12:17:56.391Z,973.25
2019-06-07T12:18:56.936Z,973.33
2019-06-07T12:19:56.396Z,973.32
2019-06-07T12:20:56.402Z,973.27
2019-06-07T12:21:56.442Z,973.15
2019-06-07T12:22:56.487Z,973.10
2019-06-07T12:23:56.447Z,973.28
2019-06-07T12:24:56.457Z,973.14
2019-06-07T12:25:56.476Z,973.26
2019-06-07T12:26:56.485Z,973.01
2019-06-07T12:27:56.525Z,973.00
2019-06-07T12:28:56.518Z,972.94
2019-06-07T12:29:56.549Z,972.98
2019-06-07T12:30:56.535Z,972.95
2019-06-07T12:31:56.548Z,972.88
2019-06-07T12:32:56.601Z,973.02
2019-06-07T12:33:56.575Z,972.89
2019-06-07T12:34:56.592Z,973.00
2019-06-07T12:35:56.597Z,972.96
2019-06-07T12:36:56.613Z,972.91
2019-06-07T12:37:56.664Z,972.93
2019-06-07T12:38:56.772Z,972.88
2019-06-07T12:39:56.653Z,972.86
2019-06-07T12:40:57.855Z,972.90
2019-06-07T12:41:56.679Z,972.85
2019-06-07T12:42:56.748Z,972.89
2019-06-07T12:43:59.150Z,972.62
2019-06-07T12:44:56.725Z,972.72
2019-06-07T12:45:56.747Z,972.69
2019-06-07T12:46:56.752Z,972.63
2019-06-07T12:47:56.781Z,972.68
2019-06-07T12:48:56.794Z,972.64
2019-06-07T12:49:56.794Z,972.64
2019-06-07T12:50:56.795Z,972.56
2019-06-07T12:51:56.807Z,972.60
2019-06-07T12:52:56.824Z,972.58
2019-06-07T12:53:56.871Z,972.59
2019-06-07T12:54:56.851Z,972.53
2019-06-07T12:56:00.004Z,972.54
2019-06-07T12:56:56.879Z,972.53
2019-06-07T12:57:56.918Z,972.53
2019-06-07T12:58:56.945Z,972.48
2019-06-07T12:59:56.918Z,972.45
2019-06-07T13:00:59.641Z,972.50
2019-06-07T13:02:02.089Z,972.41
2019-06-07T13:02:56.958Z,972.46
2019-06-07T13:03:57.003Z,972.33
2019-06-07T13:04:56.994Z,972.49
2019-06-07T13:05:57.007Z,972.46
2019-06-07T13:06:57.018Z,972.42
2019-06-07T13:07:57.033Z,972.39
2019-06-07T13:08:57.075Z,972.40
2019-06-07T13:09:57.075Z,972.29
2019-06-07T13:11:13.634Z,972.34
2019-06-07T13:11:57.094Z,972.29
2019-06-07T13:12:57.115Z,972.25
2019-06-07T13:13:57.160Z,972.23
2019-06-07T13:14:57.136Z,972.25
2019-06-07T13:15:57.141Z,972.22
2019-06-07T13:16:57.158Z,972.25
2019-06-07T13:17:57.168Z,972.26
2019-06-07T13:18:57.306Z,972.23
2019-06-07T13:19:57.197Z,972.25
2019-06-07T13:20:57.214Z,972.31
2019-06-07T13:21:57.225Z,972.28
2019-06-07T13:22:57.241Z,972.28
2019-06-07T13:23:57.281Z,972.13
2019-06-07T13:24:59.437Z,972.09
2019-06-07T13:25:57.274Z,972.34
2019-06-07T13:26:57.306Z,972.30
2019-06-07T13:27:57.302Z,972.23
2019-06-07T13:28:57.349Z,972.35
2019-06-07T13:29:57.334Z,972.34
2019-06-07T13:30:57.347Z,972.36
2019-06-07T13:31:57.366Z,972.36
2019-06-07T13:32:57.371Z,972.31
2019-06-07T13:33:57.412Z,972.20
2019-06-07T13:34:57.401Z,972.37
2019-06-07T13:35:57.412Z,972.20
2019-06-07T13:36:57.426Z,972.11
2019-06-07T13:37:59.702Z,972.26
2019-06-07T13:38:57.654Z,972.20
2019-06-07T13:39:57.461Z,972.25
2019-06-07T13:40:57.477Z,972.22
2019-06-07T13:41:57.498Z,972.23
2019-06-07T13:42:57.498Z,972.14
2019-06-07T13:43:57.541Z,972.28
2019-06-07T13:44:57.536Z,972.13
2019-06-07T13:45:57.547Z,972.27
2019-06-07T13:46:57.562Z,972.08
2019-06-07T13:47:57.598Z,972.25
2019-06-07T13:48:57.611Z,972.20
2019-06-07T13:49:57.600Z,972.23
2019-06-07T13:50:57.617Z,972.15
2019-06-07T13:51:57.618Z,972.16
2019-06-07T13:52:57.631Z,972.06
2019-06-07T13:53:57.684Z,972.17
2019-06-07T13:54:58.020Z,972.04
2019-06-07T13:55:57.678Z,972.09
2019-06-07T13:57:02.674Z,972.04
2019-06-07T13:57:57.721Z,972.10
2019-06-07T13:58:57.873Z,972.09
2019-06-07T13:59:57.748Z,972.02
2019-06-07T14:00:57.730Z,971.96
2019-06-07T14:01:57.745Z,971.96
2019-06-07T14:02:57.755Z,971.94
2019-06-07T14:03:57.766Z,971.99
2019-06-07T14:04:57.808Z,972.06
2019-06-07T14:05:58.479Z,971.93
2019-06-07T14:06:57.803Z,972.03
2019-06-07T14:07:57.815Z,972.08
2019-06-07T14:08:57.832Z,971.96
2019-06-07T14:09:57.874Z,972.00
2019-06-07T14:10:57.845Z,971.97
2019-06-07T14:11:57.865Z,971.86
2019-06-07T14:12:57.873Z,971.89
2019-06-07T14:13:57.903Z,971.83
2019-06-07T14:14:57.923Z,971.87
2019-06-07T14:15:57.918Z,971.90
2019-06-07T14:16:57.935Z,971.86
2019-06-07T14:17:57.936Z,971.89
2019-06-07T14:18:57.955Z,971.85
2019-06-07T14:19:57.983Z,971.86
2019-06-07T14:20:58.966Z,971.88
2019-06-07T14:21:58.027Z,971.90
2019-06-07T14:22:58.000Z,971.89
2019-06-07T14:23:58.013Z,971.76
2019-06-07T14:24:58.041Z,971.84
2019-06-07T14:25:58.190Z,971.74
2019-06-07T14:26:58.041Z,971.93
2019-06-07T14:27:58.049Z,971.86
2019-06-07T14:28:58.065Z,971.70
2019-06-07T14:29:58.102Z,971.76
2019-06-07T14:30:58.147Z,971.91
2019-06-07T14:31:58.098Z,971.96
2019-06-07T14:32:58.135Z,971.89
2019-06-07T14:33:58.137Z,971.88
2019-06-07T14:34:58.163Z,971.86
2019-06-07T14:35:58.139Z,971.91
2019-06-07T14:36:58.155Z,971.79
2019-06-07T14:37:58.173Z,971.78
2019-06-07T14:38:58.185Z,971.70
2019-06-07T14:39:58.216Z,971.74
2019-06-07T14:40:58.195Z,971.74
2019-06-07T14:42:09.119Z,971.71
2019-06-07T14:42:58.223Z,971.60
2019-06-07T14:43:58.236Z,971.63
2019-06-07T14:44:58.275Z,971.61
2019-06-07T14:45:58.257Z,971.53
2019-06-07T14:46:58.281Z,971.54
2019-06-07T14:47:58.282Z,971.37
2019-06-07T14:48:58.322Z,971.47
2019-06-07T14:49:58.347Z,971.58
2019-06-07T14:50:58.323Z,971.54
2019-06-07T14:51:58.318Z,971.50
2019-06-07T14:52:58.334Z,971.45
2019-06-07T14:53:58.351Z,971.47
2019-06-07T14:54:58.394Z,971.50
2019-06-07T14:55:58.372Z,971.41
2019-06-07T14:56:58.393Z,971.43
2019-06-07T14:57:58.393Z,971.44
2019-06-07T14:58:58.404Z,971.43
2019-06-07T14:59:58.445Z,971.47
2019-06-07T15:00:58.424Z,971.46
2019-06-07T15:01:58.467Z,971.45
2019-06-07T15:02:58.448Z,971.46
2019-06-07T15:03:58.456Z,971.42
2019-06-07T15:04:58.511Z,971.42
2019-06-07T15:05:58.525Z,971.41
2019-06-07T15:06:58.493Z,971.38
2019-06-07T15:07:58.517Z,971.37
2019-06-07T15:08:58.513Z,971.37
2019-06-07T15:09:58.572Z,971.36
2019-06-07T15:10:58.543Z,971.37
2019-06-07T15:11:58.554Z,971.26
2019-06-07T15:12:58.560Z,971.27
2019-06-07T15:13:58.595Z,971.25
2019-06-07T15:14:58.582Z,971.29
2019-06-07T15:15:58.627Z,971.29
2019-06-07T15:16:58.604Z,971.23
2019-06-07T15:17:58.612Z,971.22
2019-06-07T15:18:58.627Z,971.22
2019-06-07T15:19:58.639Z,971.22
2019-06-07T15:20:58.794Z,971.14
2019-06-07T15:21:58.665Z,971.13
2019-06-07T15:22:58.673Z,971.08
2019-06-07T15:23:58.700Z,971.12
2019-06-07T15:24:58.694Z,971.10
2019-06-07T15:25:58.815Z,971.07
2019-06-07T15:26:58.718Z,971.01
2019-06-07T15:27:58.741Z,971.03
2019-06-07T15:28:58.751Z,971.06
2019-06-07T15:29:58.825Z,971.08
2019-06-07T15:30:58.785Z,971.00
2019-06-07T15:31:58.772Z,971.04
2019-06-07T15:32:59.787Z,971.01
2019-06-07T15:33:58.805Z,970.98
2019-06-07T15:34:58.810Z,971.06
2019-06-07T15:35:58.855Z,971.02
2019-06-07T15:36:58.826Z,970.98
2019-06-07T15:37:58.852Z,970.97
2019-06-07T15:38:58.843Z,970.97
2019-06-07T15:39:58.856Z,970.97
2019-06-07T15:40:58.893Z,970.99
2019-06-07T15:41:58.875Z,971.01
2019-06-07T15:42:58.887Z,971.01
2019-06-07T15:43:58.895Z,971.01
2019-06-07T15:44:58.902Z,971.02
2019-06-07T15:45:59.060Z,971.01
2019-06-07T15:46:58.923Z,971.00
2019-06-07T15:47:58.931Z,971.07
2019-06-07T15:48:58.950Z,971.03
2019-06-07T15:49:58.957Z,971.04
2019-06-07T15:50:58.985Z,971.06
2019-06-07T15:51:58.988Z,971.05
2019-06-07T15:52:58.978Z,971.04
2019-06-07T15:53:58.986Z,971.02
2019-06-07T15:54:58.997Z,971.03
2019-06-07T15:55:59.034Z,971.06
2019-06-07T15:56:59.015Z,971.08
2019-06-07T15:57:59.023Z,971.02
2019-06-07T15:58:59.031Z,971.05
2019-06-07T16:00:00.029Z,971.05
2019-06-07T16:00:59.071Z,971.07
2019-06-07T16:01:59.051Z,971.01
2019-06-07T16:02:59.071Z,971.03
2019-06-07T16:03:59.081Z,970.99
2019-06-07T16:04:59.085Z,970.97
2019-06-07T16:05:59.122Z,971.06
2019-06-07T16:06:59.103Z,971.08
2019-06-07T16:07:59.117Z,971.07
2019-06-07T16:08:59.116Z,971.03
2019-06-07T16:09:59.121Z,971.07
2019-06-07T16:10:59.173Z,971.11
2019-06-07T16:11:59.166Z,971.03
2019-06-07T16:13:00.815Z,971.05
2019-06-07T16:13:59.161Z,971.00
2019-06-07T16:14:59.176Z,971.04
2019-06-07T16:15:59.222Z,970.95
2019-06-07T16:16:59.191Z,971.01
2019-06-07T16:17:59.200Z,971.04
2019-06-07T16:18:59.210Z,971.04
2019-06-07T16:19:59.349Z,971.01
2019-06-07T16:20:59.252Z,971.02
2019-06-07T16:21:59.268Z,970.98
2019-06-07T16:22:59.276Z,970.94
2019-06-07T16:23:59.439Z,970.88
2019-06-07T16:24:59.273Z,970.88
2019-06-07T16:25:59.277Z,970.85
2019-06-07T16:26:59.317Z,970.84
2019-06-07T16:27:59.380Z,970.81
2019-06-07T16:28:59.298Z,970.74
2019-06-07T16:29:59.389Z,970.77
2019-06-07T16:30:59.317Z,970.75
2019-06-07T16:31:59.359Z,970.73
2019-06-07T16:32:59.339Z,970.68
2019-06-07T16:33:59.361Z,970.67
2019-06-07T16:34:59.361Z,970.65
2019-06-07T16:35:59.368Z,970.65
2019-06-07T16:36:59.397Z,970.62
2019-06-07T16:37:59.389Z,970.63
2019-06-07T16:39:00.036Z,970.58
2019-06-07T16:39:59.395Z,970.56
2019-06-07T16:40:59.413Z,970.57
2019-06-07T16:41:59.450Z,970.56
2019-06-07T16:43:16.094Z,970.51
2019-06-07T16:43:59.439Z,970.52
2019-06-07T16:44:59.454Z,970.52
2019-06-07T16:45:59.461Z,970.49
2019-06-07T16:46:59.497Z,970.46
2019-06-07T16:47:59.469Z,970.40
2019-06-07T16:48:59.493Z,970.45
2019-06-07T16:49:59.496Z,970.40
2019-06-07T16:51:00.035Z,970.36
2019-06-07T16:51:59.540Z,970.33
2019-06-07T16:52:59.521Z,970.38
2019-06-07T16:54:00.041Z,970.33
2019-06-07T16:54:59.579Z,970.30
2019-06-07T16:55:59.564Z,970.33
2019-06-07T16:56:59.612Z,970.33
2019-06-07T16:57:59.569Z,970.35
2019-06-07T16:58:59.579Z,970.32
2019-06-07T16:59:59.583Z,970.35
2019-06-07T17:00:59.593Z,970.35
2019-06-07T17:01:59.630Z,970.32
2019-06-07T17:02:59.607Z,970.36
2019-06-07T17:03:59.616Z,970.34
2019-06-07T17:04:59.624Z,970.34
2019-06-07T17:05:59.646Z,970.25
2019-06-07T17:06:59.672Z,970.32
2019-06-07T17:07:59.658Z,970.20
2019-06-07T17:09:00.547Z,970.21
2019-06-07T17:09:59.680Z,970.13
2019-06-07T17:10:59.685Z,970.13